Baker City Municipal Airport
KBKE : now visible

Airfield :











YOU CAN JOIN US ON...

 
LOGIN :

Register | Disclaimer

   EN    FR    IT 

 









Legend :    VFR   Marginal VFR   IFR   Intensive IFR   Very Intensive IFR
Visi :
Ceiling :
>= 8 km
>= 3000ft
5 to 8 km
1000 to 3000 ft
1500m to 5 km
500 to 1000 ft
800 to 1500m
200 to 500 ft
< 800m
< 200 ft
Symbols :   Thunderstorms  Fog  Heavy snow  Heavy precipitations  Wind > 20 kt






- Airport Elevation : 3373 ft


KBKE - Baker City Municipal

CURRENT METAR :
  • 231153Z AUTO 04003KT 7SM FEW024 SCT080 BKN110 04/04 A2982 RMK AO2 SLP106 70059 T00390039 10044 20011 56002

EXPIRED METARs :
  • 231124Z AUTO 24005KT 5SM BR FEW008 OVC016 04/04 A2983 RMK AO2 T00390039
  • 231113Z AUTO 21003KT 4SM BR FEW008 OVC014 04/04 A2983 RMK AO2 T00390039
  • 231053Z AUTO 17004KT 3SM BR BKN013 OVC070 04/04 A2983 RMK AO2 SLP108 T00390039
  • 231046Z AUTO 00000KT 3SM BR FEW003 BKN013 OVC070 03/03 A2983 RMK AO2 T00330033
  • 231038Z AUTO 00000KT 1 1/2SM BR SCT003 BKN015 OVC070 03/03 A2983 RMK AO2 T00330033
  • 230959Z AUTO 35003KT 3/4SM BR BKN003 BKN060 OVC100 03/03 A2983 RMK AO2 T00330033
  • 230953Z AUTO VRB04KT 1 1/2SM BR FEW005 BKN060 OVC100 03/03 A2983 RMK AO2 SLP110 T00280028
  • 230920Z AUTO 00000KT 1/2SM FG SCT002 OVC060 03/03 A2984 RMK AO2 T00280028
  • 230908Z AUTO 00000KT 1/4SM FG BKN001 OVC060 02/02 A2984 RMK AO2 T00220022
  • 230853Z AUTO 00000KT 1/4SM FG VV002 03/03 A2984 RMK AO2 SLP113 T00280028 50000

TAF KBKE
Valid from the 23 at 12:00 until the 24 at 12:00 UTC


231140Z 2312/2412 VRB04KT P6SM VCSH SCT020 BKN060
TEMPO 2312/2314 1/2SM FG VV002
FM231800 15010KT 6SM -SHRA BKN025 OVC050
FM240100 12008KT P6SM VCSH SCT025 BKN070
KZLC FIR / North America



MET'MAP, your aeronautical weather chart ! - Copyright ORBIFLY December 2007 - Disclaimer

ORBIFLY MET'MAP TEAM :

Programming & Development : Alexandra Zaïnal
Concept & original design : Baudouin d'Aumeries
Assistance for programming : Marc-Olivier Méhu
Technical & hardware support : Manuel Goepfert

Contact : metmap@orbifly.com




SOURCES & CREDITS :

   NOAA       Earth
Advisory